04VG weather

Manquin Flight Park Ultralightport
Manquin, Virginia, United States

Public forecast

Using degrees Fahrenheit for public forecast. Weather courtesy of forecast.io.

METAR (pilot weather report)

Closest report is Hanover County Municipal Airport, 10.7 nm (19.8 km) W. Retrieved 2019/03/21 03:13 UTC (13 minutes ago):

KOFP 210313Z AUTO 00000KT 9SM BKN028 OVC039 07/04 A3021 RMK AO2 T00720044

TAF (pilot weather forecast)

Forecast is more than 12 hours old.

Closest forecast is Richmond International Airport, 13.6 nm (25.1 km) SSW. Retrieved 2019/03/20 00:36 UTC (1 day ago):

TAF KRIC 202334Z 2100/2124 08006KT 6SM -RA OVC040 FM210200 06005KT 4SM -RA BR OVC015 FM210500 06005KT 3SM -RA BR OVC007 FM211200 10009KT 4SM -RA BR OVC007 FM211800 29005KT 6SM -RA OVC015